Time;durP1;ratioP1;P1;durP2;ratioP2;P2;SDS_P1;SDS_P2;PMS_P1;PMS_P2;Temp;Humidity;BMP_temperature;BMP_pressure;BME280_temperature;BME280_humidity;BME280_pressure;Samples;Min_cycle;Max_cycle;Signal;HPM_P1;HPM_P2
2021/07/31 00:00:42;;;;;;;4.13;3.83;;;;;;;28.65;49.79;94983.00;4992620;28;20041;-67
2021/07/31 00:03:07;;;;;;;3.80;3.50;;;;;;;28.61;50.34;95006.16;4990494;28;20042;-68
2021/07/31 00:05:32;;;;;;;5.75;4.18;;;;;;;28.21;49.88;94971.41;4969510;28;20045;-66
2021/07/31 00:07:58;;;;;;;4.30;4.00;;;;;;;27.98;51.23;94969.50;4970708;28;20046;-66
2021/07/31 00:10:23;;;;;;;4.85;4.45;;;;;;;27.38;49.87;95001.41;4970529;28;20150;-66
2021/07/31 00:12:49;;;;;;;4.35;4.05;;;;;;;28.40;50.18;95018.31;4970948;28;20049;-66
2021/07/31 00:15:14;;;;;;;4.45;4.05;;;;;;;27.78;51.67;95004.25;4972880;28;20033;-67
2021/07/31 00:17:39;;;;;;;4.60;4.20;;;;;;;27.98;50.51;95029.63;4968697;28;20396;-67
2021/07/31 00:20:06;;;;;;;4.03;3.72;;;;;;;27.35;51.27;94988.59;4966753;28;20067;-66
2021/07/31 00:22:31;;;;;;;5.13;4.20;;;;;;;27.62;51.58;94982.25;4970170;28;20122;-67
2021/07/31 00:24:56;;;;;;;4.47;4.18;;;;;;;27.46;51.21;94964.59;4970742;28;20546;-66
2021/07/31 00:27:22;;;;;;;4.35;3.95;;;;;;;27.52;51.67;94966.84;4972330;28;20026;-66
2021/07/31 00:29:47;;;;;;;4.85;4.45;;;;;;;27.53;50.94;94965.63;4970903;28;20101;-67
2021/07/31 00:32:13;;;;;;;5.20;4.05;;;;;;;27.71;51.37;95009.84;4970599;28;20047;-66
2021/07/31 00:34:39;;;;;;;5.03;4.50;;;;;;;27.40;51.18;95006.47;4966863;28;20049;-66
2021/07/31 00:37:04;;;;;;;5.30;4.53;;;;;;;27.43;50.73;95000.16;4970126;28;20114;-66
2021/07/31 00:39:31;;;;;;;5.38;4.97;;;;;;;27.53;50.91;95009.34;4972698;28;20062;-66
2021/07/31 00:41:56;;;;;;;6.05;5.45;;;;;;;27.64;50.98;94990.81;4970451;28;20039;-67
2021/07/31 00:44:22;;;;;;;5.63;5.22;;;;;;;27.72;50.87;94995.00;4970537;28;20081;-67
2021/07/31 00:46:47;;;;;;;5.97;5.38;;;;;;;27.66;50.86;94980.25;4970210;28;20050;-66
2021/07/31 00:49:13;;;;;;;5.93;5.43;;;;;;;27.64;50.92;94971.69;4966952;28;20035;-66
2021/07/31 00:51:43;;;;;;;5.93;5.43;;;;;;;27.74;51.14;94981.66;4976166;28;20022;-66
2021/07/31 00:54:09;;;;;;;6.10;5.50;;;;;;;27.78;50.55;94978.88;4988023;28;20153;-66
2021/07/31 00:56:35;;;;;;;6.53;5.57;;;;;;;27.95;50.53;94983.25;4989409;28;20568;-66
2021/07/31 00:59:00;;;;;;;6.72;6.03;;;;;;;27.89;50.48;94987.66;4989751;28;20038;-67
2021/07/31 01:01:25;;;;;;;5.22;4.72;;;;;;;27.93;49.59;94988.34;4989672;28;20515;-67
2021/07/31 01:03:51;;;;;;;5.47;5.07;;;;;;;28.06;49.33;94986.53;4987465;28;20076;-66
2021/07/31 01:06:17;;;;;;;5.45;4.95;;;;;;;28.04;49.96;94993.63;4969533;28;20026;-66
2021/07/31 01:08:42;;;;;;;5.82;5.32;;;;;;;27.83;50.82;94984.63;4970114;28;20408;-67
2021/07/31 01:11:08;;;;;;;7.95;6.13;;;;;;;27.69;50.26;94993.06;4969882;28;20046;-66
2021/07/31 01:13:34;;;;;;;5.68;5.18;;;;;;;27.70;50.29;94991.88;4969957;28;20182;-66
2021/07/31 01:16:02;;;;;;;5.10;4.70;;;;;;;27.76;50.32;94990.25;4969510;28;20062;-66
2021/07/31 01:18:28;;;;;;;5.38;5.00;;;;;;;27.88;49.64;94981.41;4971881;28;20102;-66
2021/07/31 01:20:53;;;;;;;5.45;5.05;;;;;;;27.89;50.29;94985.69;4977278;28;20202;-66
2021/07/31 01:23:19;;;;;;;5.60;5.28;;;;;;;27.87;50.88;94990.81;4969708;28;20045;-66
2021/07/31 01:25:44;;;;;;;5.93;5.43;;;;;;;27.65;50.91;94981.44;4969766;28;20035;-67
2021/07/31 01:28:10;;;;;;;6.68;5.95;;;;;;;27.83;51.07;94995.56;4970167;28;20070;-67
2021/07/31 01:30:35;;;;;;;6.72;6.05;;;;;;;27.84;49.77;95007.25;4971873;28;20468;-66
2021/07/31 01:33:01;;;;;;;5.97;5.45;;;;;;;27.82;50.71;94999.50;4969722;28;20122;-67
2021/07/31 01:35:26;;;;;;;6.05;5.55;;;;;;;27.96;50.33;95007.44;4967823;28;20133;-66
2021/07/31 01:37:51;;;;;;;6.40;5.90;;;;;;;27.92;50.31;94997.75;4969136;28;20094;-66
2021/07/31 01:40:17;;;;;;;6.03;5.35;;;;;;;28.06;49.76;94996.72;4969949;28;20043;-66
2021/07/31 01:42:43;;;;;;;7.57;6.82;;;;;;;28.03;50.18;94987.38;4971698;28;20022;-65
2021/07/31 01:45:09;;;;;;;6.00;5.50;;;;;;;27.94;49.87;94990.66;4969582;28;20122;-67
2021/07/31 01:47:34;;;;;;;7.32;6.72;;;;;;;27.99;50.47;94998.38;4969108;28;20098;-66
2021/07/31 01:50:00;;;;;;;7.07;6.47;;;;;;;28.23;50.27;95004.56;4968627;28;20053;-66
2021/07/31 01:52:26;;;;;;;6.60;6.00;;;;;;;28.10;49.98;94991.94;4969698;28;20126;-66
2021/07/31 01:54:51;;;;;;;6.53;6.03;;;;;;;28.08;50.00;95003.28;4969940;28;20022;-66
2021/07/31 01:57:17;;;;;;;6.63;5.95;;;;;;;28.03;50.32;94975.66;4971314;28;20023;-66
2021/07/31 01:59:42;;;;;;;6.32;5.75;;;;;;;28.03;49.74;94992.06;4969614;28;20509;-66
2021/07/31 02:02:07;;;;;;;5.80;5.32;;;;;;;28.23;49.97;95003.78;4969864;28;20031;-66
2021/07/31 02:04:34;;;;;;;5.80;5.30;;;;;;;28.29;49.87;95004.06;4968403;28;20047;-66
2021/07/31 02:07:01;;;;;;;6.00;5.60;;;;;;;28.52;49.97;95011.44;4973342;28;20037;-66
2021/07/31 02:09:26;;;;;;;6.25;5.65;;;;;;;28.49;49.04;94999.38;4975191;28;20038;-66
2021/07/31 02:11:52;;;;;;;6.00;5.50;;;;;;;28.54;48.50;95004.34;4973605;28;20039;-66
2021/07/31 02:14:17;;;;;;;6.85;6.15;;;;;;;28.59;49.19;95006.59;4972184;28;20054;-66
2021/07/31 02:16:42;;;;;;;6.13;5.65;;;;;;;28.57;49.55;95002.75;4972892;28;20053;-66
2021/07/31 02:19:08;;;;;;;5.40;5.00;;;;;;;28.73;49.58;94995.34;4973337;28;20065;-66
2021/07/31 02:21:33;;;;;;;6.50;5.97;;;;;;;28.85;49.23;95006.81;4967143;28;20034;-66
2021/07/31 02:23:58;;;;;;;5.10;4.70;;;;;;;28.52;50.63;95008.72;4973016;28;20134;-66
2021/07/31 02:26:24;;;;;;;5.28;4.88;;;;;;;28.50;50.31;94996.19;4972733;28;20074;-66
2021/07/31 02:28:50;;;;;;;5.40;4.93;;;;;;;28.36;50.11;94996.53;4972832;28;20457;-66
2021/07/31 02:31:15;;;;;;;4.95;4.60;;;;;;;28.41;50.12;94996.03;4973196;28;20038;-66
2021/07/31 02:33:40;;;;;;;5.85;5.22;;;;;;;28.22;51.18;94994.03;4973218;28;20069;-66
2021/07/31 02:36:06;;;;;;;6.07;5.68;;;;;;;28.20;51.42;94999.16;4964115;28;20055;-66
2021/07/31 02:38:32;;;;;;;6.13;5.53;;;;;;;28.03;51.29;94990.09;4972747;28;20039;-66
2021/07/31 02:40:58;;;;;;;5.85;5.22;;;;;;;28.12;50.17;94984.09;4971740;28;20070;-66
2021/07/31 02:43:23;;;;;;;5.00;4.50;;;;;;;28.20;50.77;94988.22;4972662;28;20110;-66
2021/07/31 02:45:48;;;;;;;5.80;5.30;;;;;;;28.17;50.50;94992.56;4974332;28;20090;-66
2021/07/31 02:48:14;;;;;;;5.55;5.15;;;;;;;28.29;51.05;94990.38;4973260;28;20044;-66
2021/07/31 02:50:39;;;;;;;6.10;5.50;;;;;;;28.33;50.41;94989.16;4968482;28;20046;-66
2021/07/31 02:53:04;;;;;;;5.88;5.47;;;;;;;28.38;50.54;94974.97;4984167;28;20039;-66
2021/07/31 02:55:31;;;;;;;6.03;5.38;;;;;;;28.40;50.82;94972.56;4972635;28;20089;-66
2021/07/31 02:57:57;;;;;;;6.05;5.55;;;;;;;28.45;49.79;94974.81;4972220;28;20106;-66
2021/07/31 03:00:22;;;;;;;5.90;5.50;;;;;;;28.38;50.75;94980.44;4974369;28;20038;-66
2021/07/31 03:02:48;;;;;;;5.70;5.30;;;;;;;28.41;50.55;94985.09;4972547;28;20046;-66
2021/07/31 03:05:13;;;;;;;5.47;5.07;;;;;;;28.31;50.78;94982.53;4966022;28;20051;-67
2021/07/31 03:07:38;;;;;;;7.22;6.65;;;;;;;28.27;50.06;94979.09;4971725;28;20116;-66
2021/07/31 03:10:04;;;;;;;6.35;5.88;;;;;;;28.12;49.94;94973.91;4972262;28;20034;-66
2021/07/31 03:12:31;;;;;;;6.50;6.00;;;;;;;28.41;49.84;94973.38;4974143;28;20019;-66
2021/07/31 03:14:56;;;;;;;9.77;6.10;;;;;;;28.65;49.53;94968.53;4972212;28;20535;-66
2021/07/31 03:17:22;;;;;;;6.72;6.05;;;;;;;28.26;49.92;94978.34;4971628;28;20070;-66
2021/07/31 03:19:48;;;;;;;7.53;6.93;;;;;;;28.26;50.18;94972.88;4969516;28;20046;-66
2021/07/31 03:22:13;;;;;;;6.40;5.90;;;;;;;28.13;50.48;94969.22;4969009;28;20077;-66
2021/07/31 03:24:39;;;;;;;7.50;6.90;;;;;;;28.04;50.37;94964.31;4973945;28;20070;-66
2021/07/31 03:27:05;;;;;;;6.90;6.30;;;;;;;27.92;50.34;94964.94;4971633;28;20043;-66
2021/07/31 03:29:34;;;;;;;6.63;6.10;;;;;;;27.99;50.52;94960.09;4970804;28;20066;-66
2021/07/31 03:32:00;;;;;;;7.38;6.78;;;;;;;27.97;49.90;94976.16;4971984;28;20084;-66
2021/07/31 03:34:26;;;;;;;6.70;5.90;;;;;;;28.21;49.80;94976.09;4970569;28;20046;-66
2021/07/31 03:36:52;;;;;;;7.30;5.53;;;;;;;27.92;49.72;94982.13;4966151;28;20039;-66
2021/07/31 03:39:24;;;;;;;7.82;7.25;;;;;;;27.98;50.37;94972.22;4991074;28;20023;-66
2021/07/31 03:41:50;;;;;;;8.05;7.45;;;;;;;27.77;50.23;94985.53;4991375;28;20043;-66
2021/07/31 03:44:16;;;;;;;6.40;5.88;;;;;;;28.04;50.59;94988.91;4991307;28;20093;-66
2021/07/31 03:46:45;;;;;;;6.20;5.70;;;;;;;27.95;50.42;94984.03;4990655;28;20108;-67
2021/07/31 03:49:12;;;;;;;9.07;7.97;;;;;;;28.01;50.84;94983.53;4991280;28;20096;-66
2021/07/31 03:51:37;;;;;;;6.38;5.90;;;;;;;28.00;50.50;94977.28;4972044;28;20469;-66
2021/07/31 03:54:03;;;;;;;6.95;6.38;;;;;;;28.11;50.12;94985.28;4971391;28;20161;-66
2021/07/31 03:56:28;;;;;;;6.70;6.28;;;;;;;28.05;50.25;94984.22;4971211;28;20049;-67
2021/07/31 03:58:54;;;;;;;7.90;6.70;;;;;;;28.18;49.65;94976.94;4970468;28;20081;-66
2021/07/31 04:01:23;;;;;;;6.50;6.00;;;;;;;27.97;49.59;94986.31;4971474;28;20035;-66
2021/07/31 04:03:49;;;;;;;6.85;6.35;;;;;;;28.03;50.38;94994.81;4970091;28;20674;-66
2021/07/31 04:06:14;;;;;;;6.38;5.80;;;;;;;27.95;50.26;94988.72;4968645;28;20038;-66
2021/07/31 04:08:40;;;;;;;6.47;5.97;;;;;;;28.07;50.27;94995.53;4971187;28;20068;-66
2021/07/31 04:11:05;;;;;;;5.95;5.55;;;;;;;28.19;50.06;94990.19;4971278;28;20107;-66
2021/07/31 04:13:31;;;;;;;6.63;6.03;;;;;;;28.29;50.12;94982.19;4971311;28;20449;-67
2021/07/31 04:15:56;;;;;;;5.75;5.35;;;;;;;28.31;49.66;94993.50;4970977;28;20033;-66
2021/07/31 04:18:21;;;;;;;5.85;5.35;;;;;;;28.37;49.78;94986.34;4973120;28;20139;-66
2021/07/31 04:20:47;;;;;;;5.82;5.18;;;;;;;28.65;48.78;94987.69;4967842;28;20035;-66
2021/07/31 04:23:12;;;;;;;5.28;4.80;;;;;;;28.53;48.78;94977.41;4979437;28;20046;-66
2021/07/31 04:25:38;;;;;;;5.35;4.25;;;;;;;28.90;49.15;94981.66;4990074;28;20052;-66
2021/07/31 04:28:04;;;;;;;4.68;4.38;;;;;;;28.88;49.25;94964.91;4989639;28;20085;-66
2021/07/31 04:30:31;;;;;;;8.68;4.57;;;;;;;28.83;48.20;94965.41;4992290;28;20038;-66
2021/07/31 04:32:57;;;;;;;4.63;4.22;;;;;;;28.82;49.49;94961.91;4990201;28;20567;-66
2021/07/31 04:35:22;;;;;;;4.80;4.50;;;;;;;28.84;48.38;94977.91;4982434;28;20039;-66
2021/07/31 04:37:48;;;;;;;5.72;4.70;;;;;;;28.98;48.51;94966.66;4970118;28;20039;-66
2021/07/31 04:40:14;;;;;;;4.28;3.97;;;;;;;28.99;47.89;94971.69;4970703;28;20070;-66
2021/07/31 04:42:39;;;;;;;4.10;3.80;;;;;;;29.14;48.42;94979.56;4972529;28;20050;-66
2021/07/31 04:45:05;;;;;;;4.40;4.10;;;;;;;29.15;48.46;94981.09;4970748;28;20070;-66
2021/07/31 04:47:39;;;;;;;4.88;3.88;;;;;;;29.24;48.33;94987.53;4970125;28;20122;-66
2021/07/31 04:50:09;;;;;;;4.30;3.55;;;;;;;29.31;48.35;94981.09;4968634;28;20050;-66
2021/07/31 04:52:36;;;;;;;4.00;3.80;;;;;;;29.40;48.76;94984.00;4962357;28;20027;-66
2021/07/31 04:55:04;;;;;;;4.07;3.70;;;;;;;29.57;48.91;94978.53;4969089;28;20120;-66
2021/07/31 04:57:30;;;;;;;4.30;3.85;;;;;;;29.63;47.96;94974.06;4971932;28;20713;-66
2021/07/31 04:59:55;;;;;;;4.00;3.78;;;;;;;29.69;48.35;94973.13;4970382;28;20138;-66
2021/07/31 05:02:20;;;;;;;3.85;3.65;;;;;;;29.27;48.49;94983.91;4970374;28;20045;-66
2021/07/31 05:04:46;;;;;;;5.22;3.78;;;;;;;29.58;48.70;94977.31;4970350;28;20121;-66
2021/07/31 05:07:11;;;;;;;3.70;3.38;;;;;;;29.54;49.31;94982.91;4967842;28;20047;-66
2021/07/31 05:09:37;;;;;;;3.90;3.50;;;;;;;29.93;48.84;94970.91;4972350;28;20027;-66
2021/07/31 05:12:02;;;;;;;3.97;3.40;;;;;;;30.33;48.35;94976.09;4970172;28;20493;-67
2021/07/31 05:14:28;;;;;;;3.35;3.10;;;;;;;30.53;47.40;94967.66;4970804;28;20038;-66
2021/07/31 05:16:53;;;;;;;3.90;3.60;;;;;;;30.79;48.07;94979.47;4970033;28;20066;-66
2021/07/31 05:19:19;;;;;;;3.58;3.28;;;;;;;30.45;45.73;94977.31;4970347;28;20056;-66
2021/07/31 05:21:44;;;;;;;3.83;3.53;;;;;;;30.75;47.49;94976.81;4970467;28;20033;-66
2021/07/31 05:24:10;;;;;;;3.85;3.55;;;;;;;29.78;46.72;94991.69;4969972;28;20038;-67
2021/07/31 05:26:39;;;;;;;4.22;3.92;;;;;;;29.96;47.40;94996.69;4969567;28;20126;-67
2021/07/31 05:29:08;;;;;;;5.40;3.97;;;;;;;30.33;48.02;94995.28;4969976;28;20717;-66
2021/07/31 05:31:34;;;;;;;5.53;4.30;;;;;;;30.20;46.75;94995.28;4968595;28;20027;-66
2021/07/31 05:34:00;;;;;;;4.38;3.97;;;;;;;30.28;47.69;95001.31;4969693;28;20495;-66
2021/07/31 05:36:25;;;;;;;4.20;3.90;;;;;;;30.35;48.64;94994.84;4970695;28;20023;-73
2021/07/31 05:38:51;;;;;;;4.47;3.85;;;;;;;30.25;48.31;94986.50;4969979;28;20058;-76
2021/07/31 05:41:17;;;;;;;4.15;3.58;;;;;;;30.52;47.81;94990.84;4970377;28;20058;-73
2021/07/31 05:43:43;;;;;;;6.88;4.05;;;;;;;31.10;48.04;94992.66;4969275;28;20126;-73
2021/07/31 05:46:09;;;;;;;4.00;3.63;;;;;;;31.54;47.94;94988.09;4969789;28;20074;-71
2021/07/31 05:48:35;;;;;;;3.95;3.65;;;;;;;31.70;47.50;94982.44;4971929;28;20027;-70
2021/07/31 05:51:01;;;;;;;3.90;3.60;;;;;;;32.00;47.33;94985.78;4962122;28;20402;-76
2021/07/31 05:53:26;;;;;;;3.80;3.30;;;;;;;32.01;45.99;94993.56;4979529;28;20041;-71
2021/07/31 05:55:52;;;;;;;3.83;3.22;;;;;;;31.75;46.25;94983.84;4989214;28;20444;-73
2021/07/31 05:58:18;;;;;;;3.55;3.25;;;;;;;32.29;46.35;94991.00;4990043;28;20037;-75
2021/07/31 06:00:44;;;;;;;4.28;3.42;;;;;;;32.29;44.58;94996.50;4991814;28;20037;-65
2021/07/31 06:03:09;;;;;;;3.95;3.63;;;;;;;32.48;44.85;94989.94;4983632;28;20042;-67
2021/07/31 06:05:34;;;;;;;3.83;3.53;;;;;;;32.17;46.05;94989.84;4980255;28;20051;-70
2021/07/31 06:08:00;;;;;;;6.40;3.88;;;;;;;31.67;44.33;94986.06;4963226;28;20039;-73
2021/07/31 06:10:25;;;;;;;4.22;3.83;;;;;;;31.89;45.67;95002.66;4969805;28;20389;-71
2021/07/31 06:12:50;;;;;;;3.92;3.63;;;;;;;31.97;46.54;94990.16;4970203;28;20023;-76
2021/07/31 06:15:16;;;;;;;4.28;3.97;;;;;;;30.75;44.92;94993.28;4972608;28;20035;-78
2021/07/31 06:17:41;;;;;;;4.22;3.92;;;;;;;30.99;46.38;95004.72;4968597;28;20047;-66
2021/07/31 06:20:08;;;;;;;4.90;3.95;;;;;;;29.47;44.55;95002.22;4968867;28;20047;-75
2021/07/31 06:22:34;;;;;;;3.85;3.55;;;;;;;31.16;47.35;94988.13;4962677;28;20050;-76
2021/07/31 06:24:59;;;;;;;4.85;3.67;;;;;;;31.70;46.68;94987.16;4970055;28;20029;-75
2021/07/31 06:27:24;;;;;;;4.13;3.83;;;;;;;31.56;44.76;94989.19;4971387;28;20031;-76
2021/07/31 06:29:50;;;;;;;4.45;3.92;;;;;;;30.73;42.96;95000.44;4969238;28;20118;-75
2021/07/31 06:32:15;;;;;;;4.18;3.78;;;;;;;29.32;48.17;94981.88;4967782;28;20039;-74
2021/07/31 06:34:41;;;;;;;4.25;3.85;;;;;;;28.56;46.51;94984.75;4969618;28;20600;-74
2021/07/31 06:37:06;;;;;;;4.25;3.85;;;;;;;29.55;48.44;94991.91;4968795;28;20027;-74
2021/07/31 06:39:31;;;;;;;6.40;4.05;;;;;;;26.72;50.06;94985.66;4990651;28;20427;-73
2021/07/31 06:41:57;;;;;;;4.72;4.32;;;;;;;27.27;50.38;95006.25;4987720;28;20033;-73
2021/07/31 06:44:22;;;;;;;4.20;3.80;;;;;;;26.37;52.07;95004.00;4989139;28;20084;-73
2021/07/31 06:46:47;;;;;;;4.97;4.03;;;;;;;26.40;50.67;94994.97;4988487;28;20497;-73
2021/07/31 06:49:13;;;;;;;5.20;4.10;;;;;;;28.46;49.62;94981.84;4988654;28;20046;-72
2021/07/31 06:51:41;;;;;;;4.18;3.88;;;;;;;28.16;49.26;94988.31;4976625;28;20354;-73
2021/07/31 06:54:06;;;;;;;4.57;3.75;;;;;;;29.40;48.48;94983.25;4972818;28;20037;-73
2021/07/31 06:56:36;;;;;;;4.70;4.30;;;;;;;28.30;45.55;94980.97;4972599;28;20113;-72
2021/07/31 06:59:03;;;;;;;4.97;4.53;;;;;;;27.93;44.75;95000.06;4987752;28;20031;-73
2021/07/31 07:01:28;;;;;;;5.03;4.18;;;;;;;29.32;47.83;94996.34;4972920;28;20046;-72
2021/07/31 07:03:54;;;;;;;5.30;4.75;;;;;;;26.69;46.37;94998.13;4971865;28;20061;-71
2021/07/31 07:06:20;;;;;;;5.53;4.10;;;;;;;25.36;50.35;95003.47;4968696;28;20106;-71
2021/07/31 07:08:46;;;;;;;4.38;4.00;;;;;;;26.08;49.21;94986.44;4970980;28;20035;-71
2021/07/31 07:11:13;;;;;;;5.18;3.72;;;;;;;26.93;46.68;94987.28;4971352;28;20046;-69
2021/07/31 07:13:39;;;;;;;6.22;4.38;;;;;;;25.86;48.48;95005.00;4972658;28;20043;-70
2021/07/31 07:16:06;;;;;;;4.60;4.20;;;;;;;26.11;48.38;94993.81;4972039;28;20027;-71
2021/07/31 07:18:31;;;;;;;4.82;4.50;;;;;;;26.03;47.65;94993.09;4974488;28;20026;-70
2021/07/31 07:20:57;;;;;;;4.50;4.07;;;;;;;26.96;45.16;94995.41;4969188;28;20042;-70
2021/07/31 07:23:22;;;;;;;4.60;4.20;;;;;;;27.08;45.10;94976.94;4970998;28;20046;-70
2021/07/31 07:25:47;;;;;;;4.95;4.35;;;;;;;26.57;45.85;94990.53;4989946;28;20039;-70
2021/07/31 07:28:13;;;;;;;4.80;4.40;;;;;;;25.74;48.02;94981.72;4991748;28;20153;-70
2021/07/31 07:30:38;;;;;;;5.18;4.40;;;;;;;25.84;47.63;94985.53;4993407;28;20038;-70
2021/07/31 07:33:04;;;;;;;5.25;3.78;;;;;;;26.99;47.10;94987.59;4991753;28;20045;-71
2021/07/31 07:35:30;;;;;;;4.50;4.10;;;;;;;27.13;44.97;94981.94;4991401;28;20388;-72
2021/07/31 07:37:56;;;;;;;4.88;4.47;;;;;;;26.96;44.50;94979.03;4970370;28;20065;-70
2021/07/31 07:40:21;;;;;;;4.32;4.03;;;;;;;26.63;44.87;94982.66;4971932;28;20039;-70
2021/07/31 07:42:47;;;;;;;4.63;4.32;;;;;;;27.27;47.77;94970.75;4972728;28;20057;-70
2021/07/31 07:45:12;;;;;;;4.13;3.83;;;;;;;29.07;45.39;94979.72;4971828;28;20069;-70
2021/07/31 07:47:37;;;;;;;4.60;4.30;;;;;;;29.40;39.76;94973.03;4971268;28;20039;-72
2021/07/31 07:50:04;;;;;;;4.60;4.30;;;;;;;26.67;45.16;94984.16;4971905;28;20479;-70
2021/07/31 07:52:30;;;;;;;4.78;4.32;;;;;;;26.68;45.04;94974.78;4967596;28;20438;-71
2021/07/31 07:54:55;;;;;;;5.28;4.88;;;;;;;27.91;42.94;94975.13;4971718;28;20157;-70
2021/07/31 07:57:20;;;;;;;5.03;4.53;;;;;;;28.25;42.08;94979.50;4971990;28;20496;-69
2021/07/31 07:59:46;;;;;;;5.45;4.70;;;;;;;27.94;43.59;94976.22;4971584;28;20037;-69
2021/07/31 08:02:11;;;;;;;6.47;4.80;;;;;;;28.76;45.32;94977.28;4970544;28;20042;-69
2021/07/31 08:04:37;;;;;;;4.95;4.45;;;;;;;28.40;41.83;94975.31;4971292;28;20488;-70
2021/07/31 08:07:03;;;;;;;5.15;4.03;;;;;;;29.96;40.93;94972.78;4966235;28;20029;-70
2021/07/31 08:09:28;;;;;;;4.72;4.32;;;;;;;28.03;42.59;94976.44;4973429;28;20109;-67
2021/07/31 08:11:54;;;;;;;5.40;4.93;;;;;;;28.22;42.47;94972.16;4971314;28;20046;-69
2021/07/31 08:14:19;;;;;;;4.05;3.78;;;;;;;30.47;43.52;94966.69;4970325;28;20065;-68
2021/07/31 08:16:45;;;;;;;4.50;4.20;;;;;;;29.13;40.49;94975.31;4969615;28;20444;-70
2021/07/31 08:19:10;;;;;;;4.60;4.20;;;;;;;29.56;41.91;94971.50;4971250;28;20043;-71
2021/07/31 08:21:39;;;;;;;4.18;3.88;;;;;;;30.19;37.75;94962.78;4969078;28;20030;-68
2021/07/31 08:24:06;;;;;;;4.32;3.92;;;;;;;30.69;37.40;94958.56;4971083;28;20133;-69
2021/07/31 08:26:31;;;;;;;4.72;4.32;;;;;;;29.26;39.48;94979.66;4970490;28;20074;-70
2021/07/31 08:28:57;;;;;;;4.88;3.75;;;;;;;31.06;36.43;94968.78;4969890;28;20051;-68
2021/07/31 08:31:22;;;;;;;5.07;4.68;;;;;;;28.94;41.84;94974.94;4969788;28;20093;-69
2021/07/31 08:33:47;;;;;;;4.07;3.47;;;;;;;28.38;40.48;94976.94;4972775;28;20027;-69
2021/07/31 08:36:13;;;;;;;3.85;3.55;;;;;;;28.33;39.97;94977.41;4967990;28;20642;-72
2021/07/31 08:38:38;;;;;;;3.80;3.30;;;;;;;28.32;40.14;94986.81;4970832;28;20050;-75
2021/07/31 08:41:04;;;;;;;3.25;2.97;;;;;;;27.31;40.65;94978.91;4971150;28;20813;-74
2021/07/31 08:43:30;;;;;;;3.28;2.97;;;;;;;30.19;40.32;94974.50;4969649;28;20445;-75
2021/07/31 08:45:56;;;;;;;3.65;3.35;;;;;;;31.16;37.05;94975.16;4970371;28;20649;-73
2021/07/31 08:48:32;;;;;;;2.97;2.78;;;;;;;30.54;35.63;94969.97;4972939;28;20073;-69
2021/07/31 08:51:00;;;;;;;3.85;3.10;;;;;;;31.37;35.08;94970.19;4970752;28;20126;-74
2021/07/31 08:53:28;;;;;;;3.45;3.17;;;;;;;29.31;36.39;94991.28;4979928;28;20396;-70
2021/07/31 08:55:54;;;;;;;3.35;3.10;;;;;;;29.40;37.81;94997.72;4989924;28;20073;-71
2021/07/31 08:58:23;;;;;;;4.63;3.47;;;;;;;29.66;38.20;94978.69;4990557;28;20060;-72
2021/07/31 09:00:48;;;;;;;12.18;4.78;;;;;;;30.90;34.96;94976.38;4992233;28;20030;-74
2021/07/31 09:03:15;;;;;;;3.95;3.10;;;;;;;31.69;34.29;94980.91;4989462;28;20066;-69
2021/07/31 09:05:44;;;;;;;5.45;3.63;;;;;;;33.51;36.08;94973.34;4988314;28;20189;-77
2021/07/31 09:08:10;;;;;;;3.83;3.42;;;;;;;31.59;32.95;94976.53;4972138;28;20081;-81
2021/07/31 09:10:38;;;;;;;3.63;2.95;;;;;;;31.28;33.49;94976.41;4971408;28;20023;-78
2021/07/31 09:13:17;;;;;;;2.60;2.40;;;;;;;31.22;32.96;94981.66;4970098;28;20042;-74
2021/07/31 09:15:44;;;;;;;6.82;3.45;;;;;;;30.60;36.54;94983.16;4971915;28;20168;-77
2021/07/31 09:18:33;;;;;;;2.80;2.60;;;;;;;32.98;35.46;94974.28;4970916;28;20039;-75
2021/07/31 09:21:10;;;;;;;2.70;2.50;;;;;;;30.96;34.13;94975.38;4970621;28;20038;-76
2021/07/31 09:23:36;;;;;;;2.97;2.70;;;;;;;31.37;32.43;94976.47;4963034;28;20492;-75
2021/07/31 09:26:01;;;;;;;3.38;2.20;;;;;;;30.74;33.80;94969.03;4970093;28;20042;-72
2021/07/31 09:28:28;;;;;;;2.85;2.42;;;;;;;31.55;32.45;94973.13;4970243;28;20111;-73
2021/07/31 09:30:56;;;;;;;2.67;2.40;;;;;;;31.89;32.57;94961.38;4970409;28;20031;-81
2021/07/31 09:33:22;;;;;;;3.13;2.40;;;;;;;32.68;33.16;94967.53;4971506;28;20023;-74
2021/07/31 09:35:48;;;;;;;2.45;2.30;;;;;;;31.87;31.89;94971.28;4970381;28;20046;-74
2021/07/31 09:38:15;;;;;;;2.42;2.33;;;;;;;31.73;35.29;94980.75;4963207;28;20077;-76
2021/07/31 09:40:40;;;;;;;3.13;2.92;;;;;;;30.70;38.67;94982.09;4988778;28;20078;-74
2021/07/31 09:43:17;;;;;;;3.50;3.20;;;;;;;30.55;35.38;94979.75;4989873;28;20603;-72
2021/07/31 09:45:43;;;;;;;3.40;3.05;;;;;;;30.95;36.14;94976.59;4989706;28;20034;-70
2021/07/31 09:48:09;;;;;;;5.43;3.80;;;;;;;29.64;38.41;94997.56;4989334;28;20121;-70
2021/07/31 09:50:39;;;;;;;4.28;3.20;;;;;;;30.73;38.35;94995.72;4989099;28;20050;-66
2021/07/31 09:53:11;;;;;;;4.63;4.22;;;;;;;28.53;39.73;94993.84;4966057;28;20089;-68
2021/07/31 09:55:42;;;;;;;7.13;3.90;;;;;;;27.76;41.86;94995.69;4969400;28;20441;-68
2021/07/31 09:58:09;;;;;;;4.30;4.00;;;;;;;27.84;41.69;94997.09;4968704;28;20110;-67
2021/07/31 10:00:38;;;;;;;4.65;4.13;;;;;;;27.72;42.74;94995.00;4971594;28;20033;-66
2021/07/31 10:03:04;;;;;;;4.95;3.80;;;;;;;29.14;40.77;94991.28;4969545;28;20405;-67
2021/07/31 10:05:30;;;;;;;4.78;4.38;;;;;;;28.22;40.75;94999.50;4969803;28;20035;-67
2021/07/31 10:07:55;;;;;;;4.40;4.10;;;;;;;28.73;39.69;94989.09;4956062;28;20054;-68
2021/07/31 10:10:21;;;;;;;5.93;4.10;;;;;;;28.37;39.87;94989.84;4950690;28;20040;-64
2021/07/31 10:12:46;;;;;;;4.35;3.95;;;;;;;29.05;39.58;94982.91;4952388;28;20658;-74
2021/07/31 10:15:12;;;;;;;4.95;3.75;;;;;;;30.30;37.57;94974.22;4950738;28;20032;-74
2021/07/31 10:17:39;;;;;;;4.00;3.70;;;;;;;31.10;35.87;94967.91;4949956;28;20114;-74
2021/07/31 10:20:06;;;;;;;3.95;3.60;;;;;;;30.99;35.17;94973.75;4950335;28;20046;-75
2021/07/31 10:22:43;;;;;;;7.50;3.83;;;;;;;29.93;36.88;94972.88;4953372;28;20493;-74
2021/07/31 10:25:11;;;;;;;3.92;3.50;;;;;;;32.04;33.71;94967.13;4977923;28;22422;-74
2021/07/31 10:27:36;;;;;;;4.80;4.10;;;;;;;31.18;34.21;94969.22;4973874;28;20033;-73
2021/07/31 10:30:05;;;;;;;3.78;3.53;;;;;;;33.04;36.82;94966.94;4972200;28;20031;-72
2021/07/31 10:32:32;;;;;;;4.13;3.38;;;;;;;34.56;35.22;94962.94;4972238;28;20035;-78
2021/07/31 10:35:03;;;;;;;3.42;3.20;;;;;;;35.31;28.84;94962.16;4972509;28;20043;-82
2021/07/31 10:37:32;;;;;;;5.03;3.10;;;;;;;36.15;35.22;94959.09;4968299;28;20135;-83
2021/07/31 10:39:59;;;;;;;3.38;2.85;;;;;;;34.17;29.45;94965.41;4975280;28;20098;-85
2021/07/31 10:42:25;;;;;;;3.13;2.83;;;;;;;33.76;31.94;94961.28;4977631;28;20031;-87
2021/07/31 10:45:16;;;;;;;3.28;3.08;;;;;;;34.25;31.13;94971.41;4975382;28;20035;-77
2021/07/31 10:47:43;;;;;;;2.95;2.75;;;;;;;34.84;34.81;94960.81;4974104;28;20109;-84
2021/07/31 10:50:24;;;;;;;3.22;2.92;;;;;;;35.26;34.69;94960.03;4975517;28;20042;-80
2021/07/31 10:53:04;;;;;;;4.32;3.22;;;;;;;35.65;30.56;94960.88;4969294;28;20042;-75
2021/07/31 10:55:35;;;;;;;4.03;2.90;;;;;;;35.25;27.76;94958.50;4974080;28;20077;-81
2021/07/31 10:58:04;;;;;;;;;;;;;;;34.10;28.93;94972.03;4975144;28;20435;-82
2021/07/31 11:00:37;;;;;;;2.60;2.40;;;;;;;35.00;28.09;94971.53;4977046;28;19964;-80
2021/07/31 11:03:20;;;;;;;3.17;2.97;;;;;;;33.30;30.03;94970.22;4974835;28;20039;-82
2021/07/31 11:05:51;;;;;;;3.42;3.13;;;;;;;34.12;30.88;94966.03;4974329;28;20027;-78
2021/07/31 11:08:22;;;;;;;2.60;2.40;;;;;;;33.34;33.99;94964.56;4959679;28;20039;-80
2021/07/31 11:10:49;;;;;;;2.33;2.23;;;;;;;34.76;34.34;94970.69;4955570;28;20409;-81
2021/07/31 11:13:17;;;;;;;2.80;2.60;;;;;;;35.44;28.49;94959.91;4956252;28;20035;-82
2021/07/31 11:16:02;;;;;;;3.22;2.47;;;;;;;34.91;27.36;94966.03;4957100;28;20034;-81
2021/07/31 11:18:33;;;;;;;3.05;2.72;;;;;;;33.65;29.12;94966.50;4955004;28;20501;-82
2021/07/31 11:21:09;;;;;;;;;;;;;;;33.85;29.97;94951.00;4955903;28;20434;-81
2021/07/31 11:24:20;;;;;;;2.80;2.67;;;;;;;33.29;32.34;94946.66;4970012;28;19984;-81
2021/07/31 11:26:53;;;;;;;2.70;2.50;;;;;;;35.23;30.63;94952.69;4992951;28;20047;-80
2021/07/31 11:29:20;;;;;;;3.38;2.90;;;;;;;33.28;33.40;94955.38;4994145;28;20035;-80
2021/07/31 11:32:13;;;;;;;2.50;2.30;;;;;;;32.93;29.38;94954.81;4992819;28;20125;-80